Time,TemperatureF,DewpointF,PressureIn,WindDirection,WindDirectionDegrees,WindSpeedMPH,WindSpeedGustMPH,Humidity,HourlyPrecipIn,Conditions,Clouds,dailyrainin,SoftwareType,DateUTC
2013-01-10 00:00:00,32.0,32.0,29.76,East,80,1.0,-999.0,98,-99.99,,,-99.99,,2013-01-10 00:00:00,
2013-01-10 00:22:00,32.0,32.0,29.76,East,80,1.0,-999.0,98,-99.99,,,-99.99,,2013-01-10 00:22:00,
2013-01-10 00:32:00,32.0,32.0,29.76,East,80,1.0,-999.0,98,-99.99,,,-99.99,,2013-01-10 00:32:00,
2013-01-10 00:42:00,32.0,32.0,29.76,East,80,1.0,-999.0,98,-99.99,,,-99.99,,2013-01-10 00:42:00,
2013-01-10 00:52:00,32.0,32.0,29.76,East,80,1.0,-999.0,98,-99.99,,,-99.99,,2013-01-10 00:52:00,
2013-01-10 01:00:00,33.0,33.0,29.74,SW,230,7.0,-999.0,99,-99.99,,,-99.99,,2013-01-10 01:00:00,
2013-01-10 01:22:00,33.0,33.0,29.74,SW,230,7.0,-999.0,99,-99.99,,,-99.99,,2013-01-10 01:22:00,
2013-01-10 01:32:00,33.0,33.0,29.74,SW,230,7.0,-999.0,99,-99.99,,,-99.99,,2013-01-10 01:32:00,
2013-01-10 01:42:00,33.0,33.0,29.74,SW,230,7.0,-999.0,99,-99.99,,,-99.99,,2013-01-10 01:42:00,
2013-01-10 01:52:00,33.0,33.0,29.74,SW,230,7.0,-999.0,99,-99.99,,,-99.99,,2013-01-10 01:52:00,
2013-01-10 02:00:00,35.0,34.0,29.73,WSW,240,11.0,-999.0,96,-99.99,,,-99.99,,2013-01-10 02:00:00,
2013-01-10 02:22:00,35.0,34.0,29.73,WSW,240,11.0,-999.0,96,-99.99,,,-99.99,,2013-01-10 02:22:00,
2013-01-10 02:32:00,35.0,34.0,29.73,WSW,240,11.0,-999.0,96,-99.99,,,-99.99,,2013-01-10 02:32:00,
2013-01-10 02:42:00,35.0,34.0,29.73,WSW,240,11.0,-999.0,96,-99.99,,,-99.99,,2013-01-10 02:42:00,
2013-01-10 02:52:00,35.0,34.0,29.73,WSW,240,11.0,-999.0,96,-99.99,,,-99.99,,2013-01-10 02:52:00,
2013-01-10 03:00:00,35.0,33.0,29.74,WSW,250,8.0,-999.0,92,-99.99,,,-99.99,,2013-01-10 03:00:00,
2013-01-10 03:22:00,35.0,33.0,29.74,WSW,250,8.0,-999.0,92,-99.99,,,-99.99,,2013-01-10 03:22:00,
2013-01-10 03:32:00,35.0,33.0,29.74,WSW,250,8.0,-999.0,92,-99.99,,,-99.99,,2013-01-10 03:32:00,
2013-01-10 03:42:00,35.0,33.0,29.74,WSW,250,8.0,-999.0,92,-99.99,,,-99.99,,2013-01-10 03:42:00,
2013-01-10 03:52:00,35.0,33.0,29.74,WSW,250,8.0,-999.0,92,-99.99,,,-99.99,,2013-01-10 03:52:00,
2013-01-10 04:00:00,35.0,33.0,29.75,WSW,250,9.0,-999.0,89,-99.99,,,-99.99,,2013-01-10 04:00:00,
2013-01-10 04:22:00,35.0,33.0,29.75,WSW,250,9.0,-999.0,89,-99.99,,,-99.99,,2013-01-10 04:22:00,
2013-01-10 04:32:00,35.0,33.0,29.75,WSW,250,9.0,-999.0,89,-99.99,,,-99.99,,2013-01-10 04:32:00,
2013-01-10 04:42:00,35.0,33.0,29.75,WSW,250,9.0,-999.0,89,-99.99,,,-99.99,,2013-01-10 04:42:00,
2013-01-10 04:52:00,35.0,33.0,29.75,WSW,250,9.0,-999.0,89,-99.99,,,-99.99,,2013-01-10 04:52:00,
2013-01-10 05:00:00,35.0,32.0,29.77,WSW,250,10.0,-999.0,89,-99.99,,,-99.99,,2013-01-10 05:00:00,
2013-01-10 05:22:00,35.0,32.0,29.77,WSW,250,10.0,-999.0,89,-99.99,,,-99.99,,2013-01-10 05:22:00,
2013-01-10 05:32:00,35.0,32.0,29.77,WSW,250,10.0,-999.0,89,-99.99,,,-99.99,,2013-01-10 05:32:00,
2013-01-10 05:42:00,35.0,32.0,29.77,WSW,250,10.0,-999.0,89,-99.99,,,-99.99,,2013-01-10 05:42:00,
2013-01-10 05:52:00,35.0,32.0,29.77,WSW,250,10.0,-999.0,89,-99.99,,,-99.99,,2013-01-10 05:52:00,
2013-01-10 06:00:00,36.0,33.0,29.80,WSW,250,10.0,-999.0,87,-99.99,,,-99.99,,2013-01-10 06:00:00,
2013-01-10 06:22:00,36.0,33.0,29.80,WSW,250,10.0,-999.0,87,-99.99,,,-99.99,,2013-01-10 06:22:00,
2013-01-10 06:32:00,36.0,33.0,29.80,WSW,250,10.0,-999.0,87,-99.99,,,-99.99,,2013-01-10 06:32:00,
2013-01-10 06:42:00,36.0,33.0,29.80,WSW,250,10.0,-999.0,87,-99.99,,,-99.99,,2013-01-10 06:42:00,
2013-01-10 06:52:00,36.0,33.0,29.80,WSW,250,10.0,-999.0,87,-99.99,,,-99.99,,2013-01-10 06:52:00,
2013-01-10 07:00:00,35.0,33.0,29.83,WSW,240,17.0,-999.0,93,-99.99,,,-99.99,,2013-01-10 07:00:00,
2013-01-10 07:22:00,35.0,33.0,29.83,WSW,240,17.0,-999.0,93,-99.99,,,-99.99,,2013-01-10 07:22:00,
2013-01-10 07:32:00,35.0,33.0,29.83,WSW,240,17.0,-999.0,93,-99.99,,,-99.99,,2013-01-10 07:32:00,
2013-01-10 07:42:00,35.0,33.0,29.83,WSW,240,17.0,-999.0,93,-99.99,,,-99.99,,2013-01-10 07:42:00,
2013-01-10 07:52:00,35.0,33.0,29.83,WSW,240,17.0,-999.0,93,-99.99,,,-99.99,,2013-01-10 07:52:00,
2013-01-10 08:00:00,35.0,32.0,29.87,SW,230,20.0,-999.0,91,-99.99,,,-99.99,,2013-01-10 08:00:00,
2013-01-10 08:21:00,35.0,32.0,29.87,SW,230,20.0,-999.0,91,-99.99,,,-99.99,,2013-01-10 08:21:00,
2013-01-10 08:32:00,35.0,32.0,29.87,SW,230,20.0,-999.0,91,-99.99,,,-99.99,,2013-01-10 08:32:00,
2013-01-10 08:42:00,35.0,32.0,29.87,SW,230,20.0,-999.0,91,-99.99,,,-99.99,,2013-01-10 08:42:00,
2013-01-10 08:52:00,35.0,32.0,29.87,SW,230,20.0,-999.0,91,-99.99,,,-99.99,,2013-01-10 08:52:00,
2013-01-10 09:00:00,37.0,30.0,29.93,West,260,11.0,-999.0,74,-99.99,,,-99.99,,2013-01-10 09:00:00,
2013-01-10 09:22:00,37.0,30.0,29.93,West,260,11.0,-999.0,74,-99.99,,,-99.99,,2013-01-10 09:22:00,
2013-01-10 09:32:00,37.0,30.0,29.93,West,260,11.0,-999.0,74,-99.99,,,-99.99,,2013-01-10 09:32:00,
2013-01-10 09:42:00,37.0,30.0,29.93,West,260,11.0,-999.0,74,-99.99,,,-99.99,,2013-01-10 09:42:00,
2013-01-10 09:52:00,37.0,30.0,29.93,West,260,11.0,-999.0,74,-99.99,,,-99.99,,2013-01-10 09:52:00,
2013-01-10 10:00:00,36.0,31.0,29.96,WSW,250,15.0,-999.0,81,-99.99,,,-99.99,,2013-01-10 10:00:00,
2013-01-10 10:22:00,36.0,31.0,29.96,WSW,250,15.0,-999.0,81,-99.99,,,-99.99,,2013-01-10 10:22:00,
2013-01-10 10:32:00,36.0,31.0,29.96,WSW,250,15.0,-999.0,81,-99.99,,,-99.99,,2013-01-10 10:32:00,
2013-01-10 10:42:00,36.0,31.0,29.96,WSW,250,15.0,-999.0,81,-99.99,,,-99.99,,2013-01-10 10:42:00,
2013-01-10 10:52:00,36.0,31.0,29.96,WSW,250,15.0,-999.0,81,-99.99,,,-99.99,,2013-01-10 10:52:00,
2013-01-10 11:00:00,35.0,30.0,29.99,WSW,240,17.0,-999.0,82,-99.99,,,-99.99,,2013-01-10 11:00:00,
2013-01-10 11:22:00,35.0,30.0,29.99,WSW,240,17.0,-999.0,82,-99.99,,,-99.99,,2013-01-10 11:22:00,
2013-01-10 11:32:00,35.0,30.0,29.99,WSW,240,17.0,-999.0,82,-99.99,,,-99.99,,2013-01-10 11:32:00,
2013-01-10 11:42:00,35.0,30.0,29.99,WSW,240,17.0,-999.0,82,-99.99,,,-99.99,,2013-01-10 11:42:00,
2013-01-10 11:52:00,35.0,30.0,29.99,WSW,240,17.0,-999.0,82,-99.99,,,-99.99,,2013-01-10 11:52:00,
2013-01-10 12:00:00,35.0,31.0,30.04,WSW,240,17.0,-999.0,83,-99.99,,,-99.99,,2013-01-10 12:00:00,
2013-01-10 12:22:00,35.0,31.0,30.04,WSW,240,17.0,-999.0,83,-99.99,,,-99.99,,2013-01-10 12:22:00,
2013-01-10 12:32:00,35.0,31.0,30.04,WSW,240,17.0,-999.0,83,-99.99,,,-99.99,,2013-01-10 12:32:00,
2013-01-10 12:42:00,35.0,31.0,30.04,WSW,240,17.0,-999.0,83,-99.99,,,-99.99,,2013-01-10 12:42:00,
2013-01-10 12:52:00,35.0,31.0,30.04,WSW,240,17.0,-999.0,83,-99.99,,,-99.99,,2013-01-10 12:52:00,
2013-01-10 13:00:00,37.0,27.0,30.11,West,280,16.0,-999.0,67,-99.99,,,-99.99,,2013-01-10 13:00:00,
2013-01-10 13:22:00,37.0,27.0,30.11,West,280,16.0,-999.0,67,-99.99,,,-99.99,,2013-01-10 13:22:00,
2013-01-10 13:32:00,37.0,27.0,30.11,West,280,16.0,-999.0,67,-99.99,,,-99.99,,2013-01-10 13:32:00,
2013-01-10 13:42:00,37.0,27.0,30.11,West,280,16.0,-999.0,67,-99.99,,,-99.99,,2013-01-10 13:42:00,
2013-01-10 13:52:00,37.0,27.0,30.11,West,280,16.0,-999.0,67,-99.99,,,-99.99,,2013-01-10 13:52:00,
2013-01-10 14:00:00,36.0,25.0,30.16,West,280,10.0,-999.0,62,-99.99,,,-99.99,,2013-01-10 14:00:00,
2013-01-10 14:22:00,36.0,25.0,30.16,West,280,10.0,-999.0,62,-99.99,,,-99.99,,2013-01-10 14:22:00,
2013-01-10 14:32:00,36.0,25.0,30.16,West,280,10.0,-999.0,62,-99.99,,,-99.99,,2013-01-10 14:32:00,
2013-01-10 14:42:00,36.0,25.0,30.16,West,280,10.0,-999.0,62,-99.99,,,-99.99,,2013-01-10 14:42:00,
2013-01-10 14:52:00,36.0,25.0,30.16,West,280,10.0,-999.0,62,-99.99,,,-99.99,,2013-01-10 14:52:00,
2013-01-10 15:00:00,35.0,22.0,30.23,West,280,15.0,-999.0,58,-99.99,,,-99.99,,2013-01-10 15:00:00,
2013-01-10 15:22:00,35.0,22.0,30.23,West,280,15.0,-999.0,58,-99.99,,,-99.99,,2013-01-10 15:22:00,
2013-01-10 15:32:00,35.0,22.0,30.23,West,280,15.0,-999.0,58,-99.99,,,-99.99,,2013-01-10 15:32:00,
2013-01-10 15:42:00,35.0,22.0,30.23,West,280,15.0,-999.0,58,-99.99,,,-99.99,,2013-01-10 15:42:00,
2013-01-10 15:52:00,35.0,22.0,30.23,West,280,15.0,-999.0,58,-99.99,,,-99.99,,2013-01-10 15:52:00,
2013-01-10 16:00:00,35.0,20.0,30.29,NW,310,14.0,-999.0,54,-99.99,,,-99.99,,2013-01-10 16:00:00,
2013-01-10 16:22:00,35.0,20.0,30.29,NW,310,14.0,-999.0,54,-99.99,,,-99.99,,2013-01-10 16:22:00,
2013-01-10 16:32:00,35.0,20.0,30.29,NW,310,14.0,-999.0,54,-99.99,,,-99.99,,2013-01-10 16:32:00,
2013-01-10 16:42:00,35.0,20.0,30.29,NW,310,14.0,-999.0,54,-99.99,,,-99.99,,2013-01-10 16:42:00,
2013-01-10 16:52:00,35.0,20.0,30.29,NW,310,14.0,-999.0,54,-99.99,,,-99.99,,2013-01-10 16:52:00,
2013-01-10 17:00:00,34.0,20.0,30.30,NW,310,16.0,-999.0,55,-99.99,,,-99.99,,2013-01-10 17:00:00,
2013-01-10 17:33:00,34.0,20.0,30.30,NW,310,16.0,-999.0,55,-99.99,,,-99.99,,2013-01-10 17:33:00,
2013-01-10 17:42:00,34.0,20.0,30.30,NW,310,16.0,-999.0,55,-99.99,,,-99.99,,2013-01-10 17:42:00,
2013-01-10 17:52:00,34.0,20.0,30.30,NW,310,16.0,-999.0,55,-99.99,,,-99.99,,2013-01-10 17:52:00,
2013-01-10 18:00:00,33.0,20.0,30.30,NW,310,23.0,-999.0,57,-99.99,,,-99.99,,2013-01-10 18:00:00,
2013-01-10 18:22:00,33.0,20.0,30.30,NW,310,23.0,-999.0,57,-99.99,,,-99.99,,2013-01-10 18:22:00,
2013-01-10 18:32:00,33.0,20.0,30.30,NW,310,23.0,-999.0,57,-99.99,,,-99.99,,2013-01-10 18:32:00,
2013-01-10 18:43:00,33.0,20.0,30.30,NW,310,23.0,-999.0,57,-99.99,,,-99.99,,2013-01-10 18:43:00,
2013-01-10 18:52:00,33.0,20.0,30.30,NW,310,23.0,-999.0,57,-99.99,,,-99.99,,2013-01-10 18:52:00,
2013-01-10 19:00:00,33.0,19.0,30.35,NW,310,14.0,-999.0,55,-99.99,,,-99.99,,2013-01-10 19:00:00,
2013-01-10 19:22:00,33.0,19.0,30.35,NW,310,14.0,-999.0,55,-99.99,,,-99.99,,2013-01-10 19:22:00,
2013-01-10 19:32:00,33.0,19.0,30.35,NW,310,14.0,-999.0,55,-99.99,,,-99.99,,2013-01-10 19:32:00,
2013-01-10 19:42:00,33.0,19.0,30.35,NW,310,14.0,-999.0,55,-99.99,,,-99.99,,2013-01-10 19:42:00,
2013-01-10 19:52:00,33.0,19.0,30.35,NW,310,14.0,-999.0,55,-99.99,,,-99.99,,2013-01-10 19:52:00,
2013-01-10 20:00:00,34.0,20.0,30.41,WNW,290,13.0,-999.0,56,-99.99,,,-99.99,,2013-01-10 20:00:00,
2013-01-10 20:22:00,34.0,20.0,30.41,WNW,290,13.0,-999.0,56,-99.99,,,-99.99,,2013-01-10 20:22:00,
2013-01-10 20:32:00,34.0,20.0,30.41,WNW,290,13.0,-999.0,56,-99.99,,,-99.99,,2013-01-10 20:32:00,
2013-01-10 20:42:00,34.0,20.0,30.41,WNW,290,13.0,-999.0,56,-99.99,,,-99.99,,2013-01-10 20:42:00,
2013-01-10 20:52:00,34.0,20.0,30.41,WNW,290,13.0,-999.0,56,-99.99,,,-99.99,,2013-01-10 20:52:00,
2013-01-10 21:00:00,33.0,19.0,30.45,WNW,300,14.0,-999.0,56,-99.99,,,-99.99,,2013-01-10 21:00:00,
2013-01-10 21:22:00,33.0,19.0,30.45,WNW,300,14.0,-999.0,56,-99.99,,,-99.99,,2013-01-10 21:22:00,
2013-01-10 21:32:00,33.0,19.0,30.45,WNW,300,14.0,-999.0,56,-99.99,,,-99.99,,2013-01-10 21:32:00,
2013-01-10 21:42:00,33.0,19.0,30.45,WNW,300,14.0,-999.0,56,-99.99,,,-99.99,,2013-01-10 21:42:00,
2013-01-10 21:52:00,33.0,19.0,30.45,WNW,300,14.0,-999.0,56,-99.99,,,-99.99,,2013-01-10 21:52:00,
2013-01-10 22:00:00,32.0,19.0,30.50,WNW,300,9.0,-999.0,59,-99.99,,,-99.99,,2013-01-10 22:00:00,
2013-01-10 22:22:00,32.0,19.0,30.50,WNW,300,9.0,-999.0,59,-99.99,,,-99.99,,2013-01-10 22:22:00,
2013-01-10 22:32:00,32.0,19.0,30.50,WNW,300,9.0,-999.0,59,-99.99,,,-99.99,,2013-01-10 22:32:00,
2013-01-10 22:42:00,32.0,19.0,30.50,WNW,300,9.0,-999.0,59,-99.99,,,-99.99,,2013-01-10 22:42:00,
2013-01-10 23:00:00,32.0,20.0,30.54,West,280,6.0,-999.0,60,-99.99,,,-99.99,,2013-01-10 23:00:00,
2013-01-10 23:22:00,32.0,20.0,30.54,West,280,6.0,-999.0,60,-99.99,,,-99.99,,2013-01-10 23:22:00,
2013-01-10 23:32:00,32.0,20.0,30.54,West,280,6.0,-999.0,60,-99.99,,,-99.99,,2013-01-10 23:32:00,
2013-01-10 23:42:00,32.0,20.0,30.54,West,280,6.0,-999.0,60,-99.99,,,-99.99,,2013-01-10 23:42:00,
2013-01-10 23:52:00,32.0,20.0,30.54,West,280,6.0,-999.0,60,-99.99,,,-99.99,,2013-01-10 23:52:00,